Time;durP1;ratioP1;P1;durP2;ratioP2;P2;SDS_P1;SDS_P2;PMS_P1;PMS_P2;Temp;Humidity;BMP_temperature;BMP_pressure;BME280_temperature;BME280_humidity;BME280_pressure;Samples;Min_cycle;Max_cycle;Signal;HPM_P1;HPM_P2
2021/07/07 00:01:04;;;;;;;2.55;1.40;;;;;;;;;;5029208;28;20496;-52
2021/07/07 00:03:29;;;;;;;3.00;1.63;;;;;;;;;;5028411;28;20029;-50
2021/07/07 00:05:55;;;;;;;5.18;1.77;;;;;;;;;;5028870;28;20477;-53
2021/07/07 00:08:20;;;;;;;2.97;1.58;;;;;;;;;;5028003;28;20432;-52
2021/07/07 00:10:46;;;;;;;6.60;1.95;;;;;;;;;;5028661;28;20037;-54
2021/07/07 00:13:12;;;;;;;3.13;1.40;;;;;;;;;;5029042;28;20435;-51
2021/07/07 00:15:38;;;;;;;4.40;1.58;;;;;;;;;;5018118;28;20060;-45
2021/07/07 00:18:07;;;;;;;3.97;1.50;;;;;;;;;;5018833;28;20093;-51
2021/07/07 00:20:37;;;;;;;5.57;1.70;;;;;;;;;;5028275;28;20037;-47
2021/07/07 00:23:02;;;;;;;3.65;1.98;;;;;;;;;;5028573;28;20052;-51
2021/07/07 00:25:28;;;;;;;4.82;1.55;;;;;;;;;;5028484;28;20396;-50
2021/07/07 00:27:53;;;;;;;3.38;1.55;;;;;;;;;;5025943;28;20025;-51
2021/07/07 00:30:19;;;;;;;4.35;1.60;;;;;;;;;;5027516;28;20100;-48
2021/07/07 00:32:44;;;;;;;5.97;1.58;;;;;;;;;;5028800;28;20033;-51
2021/07/07 00:35:10;;;;;;;5.03;1.67;;;;;;;;;;5028249;28;20083;-52
2021/07/07 00:37:36;;;;;;;2.70;1.75;;;;;;;;;;5026602;28;20036;-46
2021/07/07 00:40:03;;;;;;;5.45;2.72;;;;;;;;;;5028406;28;20026;-51
2021/07/07 00:42:28;;;;;;;3.25;1.90;;;;;;;;;;5019054;28;20022;-51
2021/07/07 00:44:53;;;;;;;8.57;1.73;;;;;;;;;;5008779;28;20367;-50
2021/07/07 00:47:19;;;;;;;3.95;1.80;;;;;;;;;;5020941;28;20017;-52
2021/07/07 00:49:44;;;;;;;7.05;2.28;;;;;;;;;;5028390;28;20469;-50
2021/07/07 00:52:11;;;;;;;5.53;1.73;;;;;;;;;;5021884;28;20014;-49
2021/07/07 00:54:38;;;;;;;4.40;2.20;;;;;;;;;;5008459;28;20700;-49
2021/07/07 00:57:03;;;;;;;5.85;1.60;;;;;;;;;;5008167;28;20026;-49
2021/07/07 00:59:31;;;;;;;3.65;1.50;;;;;;;;;;5007259;28;20598;-51
2021/07/07 01:01:57;;;;;;;2.60;1.52;;;;;;;;;;5008340;28;20050;-50
2021/07/07 01:04:23;;;;;;;3.15;1.58;;;;;;;;;;5007503;28;20061;-48
2021/07/07 01:06:48;;;;;;;3.45;1.90;;;;;;;;;;5010274;28;20021;-49
2021/07/07 01:09:14;;;;;;;3.65;1.65;;;;;;;;;;5018096;28;20026;-55
2021/07/07 01:11:39;;;;;;;3.65;1.40;;;;;;;;;;5008187;28;20029;-53
2021/07/07 01:14:04;;;;;;;5.70;1.63;;;;;;;;;;5007950;28;20033;-50
2021/07/07 01:16:30;;;;;;;7.30;2.70;;;;;;;;;;5022642;28;20029;-48
2021/07/07 01:18:56;;;;;;;5.03;1.73;;;;;;;;;;5007301;28;20465;-46
2021/07/07 01:21:22;;;;;;;5.72;1.85;;;;;;;;;;5005949;28;20026;-46
2021/07/07 01:23:48;;;;;;;3.60;1.80;;;;;;;;;;5027717;28;20017;-50
2021/07/07 01:26:14;;;;;;;4.53;1.40;;;;;;;;;;5027662;28;20075;-48
2021/07/07 01:28:39;;;;;;;8.95;1.75;;;;;;;;;;5007326;28;20587;-52
2021/07/07 01:31:05;;;;;;;4.55;1.80;;;;;;;;;;5023031;28;20049;-53
2021/07/07 01:33:31;;;;;;;4.70;1.98;;;;;;;;;;5019539;28;20082;-51
2021/07/07 01:35:57;;;;;;;3.92;2.10;;;;;;;;;;5027471;28;20036;-53
2021/07/07 01:38:22;;;;;;;4.80;2.10;;;;;;;;;;5025758;28;20017;-49
2021/07/07 01:40:48;;;;;;;6.43;2.22;;;;;;;;;;5026851;28;20029;-51
2021/07/07 01:43:13;;;;;;;3.83;1.60;;;;;;;;;;5025056;28;20487;-49
2021/07/07 01:45:38;;;;;;;6.25;1.80;;;;;;;;;;5026390;28;20052;-49
2021/07/07 01:48:04;;;;;;;4.13;1.92;;;;;;;;;;5016639;28;20065;-49
2021/07/07 01:50:30;;;;;;;6.22;1.88;;;;;;;;;;5008036;28;20057;-52
2021/07/07 01:52:56;;;;;;;5.82;1.98;;;;;;;;;;5014256;28;20030;-51
2021/07/07 01:55:22;;;;;;;5.50;1.90;;;;;;;;;;5011970;28;20029;-49
2021/07/07 01:57:49;;;;;;;4.43;2.42;;;;;;;;;;5025457;28;20040;-50
2021/07/07 02:00:19;;;;;;;5.43;2.03;;;;;;;;;;5026902;28;20022;-52
2021/07/07 02:02:46;;;;;;;4.95;1.92;;;;;;;;;;5026559;28;20025;-46
2021/07/07 02:05:12;;;;;;;6.05;2.00;;;;;;;;;;5026741;28;20017;-46
2021/07/07 02:07:38;;;;;;;5.82;1.65;;;;;;;;;;5026271;28;20028;-48
2021/07/07 02:10:06;;;;;;;4.65;1.90;;;;;;;;;;5009008;28;20026;-49
2021/07/07 02:12:32;;;;;;;8.98;1.92;;;;;;;;;;5006878;28;20022;-50
2021/07/07 02:14:57;;;;;;;8.50;2.35;;;;;;;;;;5006423;28;20507;-50
2021/07/07 02:17:22;;;;;;;8.27;2.25;;;;;;;;;;5006360;28;20192;-48
2021/07/07 02:19:48;;;;;;;6.60;2.78;;;;;;;;;;5006752;28;20017;-52
2021/07/07 02:22:13;;;;;;;6.03;2.85;;;;;;;;;;5006400;28;20026;-49
2021/07/07 02:24:38;;;;;;;5.97;2.53;;;;;;;;;;5010694;28;20025;-49
2021/07/07 02:27:04;;;;;;;3.67;2.22;;;;;;;;;;5026394;28;20040;-52
2021/07/07 02:29:29;;;;;;;3.95;2.25;;;;;;;;;;5025998;28;20028;-49
2021/07/07 02:31:55;;;;;;;4.85;2.50;;;;;;;;;;5025773;28;20032;-52
2021/07/07 02:34:20;;;;;;;6.97;2.83;;;;;;;;;;5026035;28;20112;-47
2021/07/07 02:36:46;;;;;;;7.35;2.63;;;;;;;;;;5025227;28;20120;-51
2021/07/07 02:39:11;;;;;;;6.00;2.88;;;;;;;;;;5026467;28;20048;-52
2021/07/07 02:41:37;;;;;;;7.57;3.55;;;;;;;;;;5024882;28;20028;-49
2021/07/07 02:44:02;;;;;;;6.63;4.53;;;;;;;;;;5013984;28;20025;-48
2021/07/07 02:46:28;;;;;;;10.75;5.32;;;;;;;;;;5012730;28;20523;-52
2021/07/07 02:48:53;;;;;;;7.85;4.65;;;;;;;;;;5025507;28;20029;-48
2021/07/07 02:51:18;;;;;;;8.52;5.35;;;;;;;;;;5025264;28;20072;-53
2021/07/07 02:53:43;;;;;;;10.55;5.70;;;;;;;;;;5025069;28;20022;-51
2021/07/07 02:56:09;;;;;;;11.52;4.97;;;;;;;;;;5009223;28;20029;-49
2021/07/07 02:58:34;;;;;;;8.55;4.93;;;;;;;;;;5005227;28;20453;-50
2021/07/07 03:01:01;;;;;;;8.02;5.00;;;;;;;;;;5004844;28;20029;-47
2021/07/07 03:03:27;;;;;;;9.63;5.88;;;;;;;;;;5006403;28;20109;-50
2021/07/07 03:06:00;;;;;;;8.15;4.78;;;;;;;;;;5005385;28;20079;-51
2021/07/07 03:08:31;;;;;;;10.18;4.68;;;;;;;;;;5015972;28;20021;-48
2021/07/07 03:10:57;;;;;;;9.85;5.13;;;;;;;;;;5026046;28;20032;-51
2021/07/07 03:13:24;;;;;;;7.00;5.28;;;;;;;;;;5010402;28;20091;-50
2021/07/07 03:15:51;;;;;;;9.15;5.13;;;;;;;;;;5006504;28;20034;-48
2021/07/07 03:18:17;;;;;;;11.40;5.95;;;;;;;;;;5007029;28;20022;-48
2021/07/07 03:20:45;;;;;;;10.65;7.10;;;;;;;;;;5006270;28;20026;-55
2021/07/07 03:23:11;;;;;;;9.80;6.68;;;;;;;;;;5013883;28;20102;-50
2021/07/07 03:25:37;;;;;;;12.13;7.57;;;;;;;;;;5025756;28;20026;-55
2021/07/07 03:28:03;;;;;;;14.77;7.95;;;;;;;;;;5021244;28;20030;-55
2021/07/07 03:30:28;;;;;;;13.77;7.75;;;;;;;;;;5016391;28;20029;-55
2021/07/07 03:32:56;;;;;;;13.70;9.27;;;;;;;;;;5025911;28;20523;-55
2021/07/07 03:35:21;;;;;;;11.15;7.50;;;;;;;;;;5025080;28;20030;-46
2021/07/07 03:37:47;;;;;;;11.93;7.05;;;;;;;;;;5025599;28;20040;-51
2021/07/07 03:40:12;;;;;;;12.48;7.75;;;;;;;;;;5011858;28;20026;-52
2021/07/07 03:42:39;;;;;;;12.52;8.43;;;;;;;;;;5005342;28;20034;-50
2021/07/07 03:45:06;;;;;;;14.13;8.40;;;;;;;;;;5005188;28;20057;-49
2021/07/07 03:47:32;;;;;;;15.82;8.07;;;;;;;;;;5020543;28;20277;-50
2021/07/07 03:49:57;;;;;;;12.88;7.20;;;;;;;;;;5025141;28;20546;-49
2021/07/07 03:52:22;;;;;;;11.52;6.00;;;;;;;;;;5024973;28;20049;-53
2021/07/07 03:54:48;;;;;;;10.43;5.93;;;;;;;;;;5025591;28;20021;-48
2021/07/07 03:57:13;;;;;;;8.95;5.88;;;;;;;;;;5006078;28;20037;-49
2021/07/07 03:59:38;;;;;;;11.55;6.10;;;;;;;;;;5005731;28;20452;-51
2021/07/07 04:02:04;;;;;;;8.80;5.63;;;;;;;;;;5005520;28;20021;-52
2021/07/07 04:04:29;;;;;;;8.38;5.93;;;;;;;;;;5005390;28;20018;-46
2021/07/07 04:06:58;;;;;;;11.18;5.78;;;;;;;;;;5003403;28;20080;-49
2021/07/07 04:09:27;;;;;;;7.63;4.65;;;;;;;;;;5021004;28;20030;-47
2021/07/07 04:11:53;;;;;;;10.15;4.40;;;;;;;;;;5024223;28;20113;-46
2021/07/07 04:14:23;;;;;;;6.68;4.28;;;;;;;;;;5024669;28;20772;-50
2021/07/07 04:16:53;;;;;;;8.88;5.03;;;;;;;;;;5023538;28;20025;-49
2021/07/07 04:19:20;;;;;;;6.45;4.07;;;;;;;;;;5025504;28;20029;-51
2021/07/07 04:21:49;;;;;;;8.18;3.95;;;;;;;;;;5027082;28;20037;-50
2021/07/07 04:24:16;;;;;;;6.38;3.50;;;;;;;;;;5024438;28;20052;-48
2021/07/07 04:26:43;;;;;;;7.95;4.15;;;;;;;;;;5025020;28;20064;-51
2021/07/07 04:29:08;;;;;;;8.30;3.25;;;;;;;;;;5020315;28;20026;-51
2021/07/07 04:31:37;;;;;;;8.38;2.97;;;;;;;;;;5026891;28;20028;-52
2021/07/07 04:34:03;;;;;;;9.13;2.65;;;;;;;;;;5013839;28;20029;-52
2021/07/07 04:36:29;;;;;;;6.13;2.28;;;;;;;;;;5025547;28;20021;-48
2021/07/07 04:38:55;;;;;;;6.50;2.90;;;;;;;;;;5026338;28;20362;-51
2021/07/07 04:41:20;;;;;;;5.68;3.17;;;;;;;;;;5024284;28;20804;-48
2021/07/07 04:43:46;;;;;;;8.25;2.88;;;;;;;;;;5015483;28;20072;-55
2021/07/07 04:46:11;;;;;;;6.88;3.47;;;;;;;;;;5022837;28;20516;-51
2021/07/07 04:48:36;;;;;;;4.32;2.35;;;;;;;;;;5020791;28;20037;-50
2021/07/07 04:51:02;;;;;;;7.78;2.90;;;;;;;;;;5025960;28;20100;-54
2021/07/07 04:53:27;;;;;;;4.47;1.90;;;;;;;;;;5025040;28;20029;-54
2021/07/07 04:55:53;;;;;;;4.85;2.35;;;;;;;;;;5020075;28;20395;-54
2021/07/07 04:58:18;;;;;;;5.72;3.30;;;;;;;;;;5017769;28;20147;-56
2021/07/07 05:00:43;;;;;;;3.60;2.00;;;;;;;;;;5020051;28;20033;-45
2021/07/07 05:03:09;;;;;;;6.15;2.22;;;;;;;;;;5025696;28;20079;-49
2021/07/07 05:05:34;;;;;;;5.88;1.95;;;;;;;;;;5025251;28;20109;-52
2021/07/07 05:08:00;;;;;;;6.75;2.63;;;;;;;;;;5025305;28;20068;-46
2021/07/07 05:10:26;;;;;;;5.22;1.92;;;;;;;;;;5024196;28;20100;-46
2021/07/07 05:12:52;;;;;;;5.07;2.20;;;;;;;;;;5017731;28;20029;-46
2021/07/07 05:15:18;;;;;;;3.95;2.30;;;;;;;;;;5017192;28;20770;-50
2021/07/07 05:17:45;;;;;;;5.55;2.58;;;;;;;;;;5024103;28;20033;-50
2021/07/07 05:20:11;;;;;;;4.32;2.70;;;;;;;;;;5013194;28;20029;-45
2021/07/07 05:22:36;;;;;;;5.68;2.17;;;;;;;;;;5017207;28;20029;-48
2021/07/07 05:25:02;;;;;;;6.25;2.47;;;;;;;;;;5017858;28;20499;-49
2021/07/07 05:27:27;;;;;;;3.83;2.08;;;;;;;;;;5020826;28;20532;-46
2021/07/07 05:29:53;;;;;;;4.95;2.63;;;;;;;;;;5023860;28;20464;-49
2021/07/07 05:32:22;;;;;;;4.88;1.98;;;;;;;;;;5025242;28;20047;-46
2021/07/07 05:34:54;;;;;;;6.50;2.05;;;;;;;;;;5024718;28;20053;-49
2021/07/07 05:37:23;;;;;;;6.70;2.40;;;;;;;;;;5016505;28;20028;-46
2021/07/07 05:39:49;;;;;;;4.80;1.90;;;;;;;;;;5025408;28;20107;-47
2021/07/07 05:42:17;;;;;;;4.28;2.05;;;;;;;;;;5024073;28;20853;-48
2021/07/07 05:44:43;;;;;;;3.22;1.92;;;;;;;;;;5024410;28;20037;-45
2021/07/07 05:47:08;;;;;;;4.78;2.08;;;;;;;;;;5022206;28;20032;-49
2021/07/07 05:49:33;;;;;;;5.85;2.03;;;;;;;;;;5007175;28;20422;-43
2021/07/07 05:51:59;;;;;;;7.22;2.50;;;;;;;;;;5020580;28;20118;-44
2021/07/07 05:54:24;;;;;;;5.10;2.22;;;;;;;;;;5025694;28;20775;-47
2021/07/07 05:56:49;;;;;;;3.22;1.88;;;;;;;;;;5026427;28;20057;-46
2021/07/07 05:59:15;;;;;;;5.35;2.25;;;;;;;;;;5023524;28;20038;-45
2021/07/07 06:01:40;;;;;;;4.90;2.00;;;;;;;;;;5006832;28;20032;-47
2021/07/07 06:04:05;;;;;;;4.70;2.55;;;;;;;;;;5007356;28;20022;-46
2021/07/07 06:06:31;;;;;;;3.92;2.33;;;;;;;;;;5006297;28;20072;-49
2021/07/07 06:08:56;;;;;;;5.32;2.67;;;;;;;;;;5019464;28;20040;-47
2021/07/07 06:11:21;;;;;;;5.25;2.58;;;;;;;;;;5012338;28;20080;-45
2021/07/07 06:13:47;;;;;;;5.32;2.20;;;;;;;;;;5014250;28;20090;-48
2021/07/07 06:16:12;;;;;;;4.40;2.20;;;;;;;;;;5021591;28;20029;-46
2021/07/07 06:18:37;;;;;;;5.97;2.13;;;;;;;;;;5006200;28;20677;-46
2021/07/07 06:21:03;;;;;;;4.50;2.17;;;;;;;;;;5006322;28;20026;-47
2021/07/07 06:23:28;;;;;;;7.20;2.42;;;;;;;;;;5006238;28;20032;-45
2021/07/07 06:25:53;;;;;;;5.75;2.65;;;;;;;;;;5006040;28;20080;-46
2021/07/07 06:28:19;;;;;;;4.53;2.50;;;;;;;;;;5006175;28;20392;-46
2021/07/07 06:30:44;;;;;;;4.25;1.98;;;;;;;;;;5014426;28;20036;-47
2021/07/07 06:33:11;;;;;;;4.88;2.50;;;;;;;;;;5025067;28;20025;-50
2021/07/07 06:35:36;;;;;;;4.32;2.28;;;;;;;;;;5026238;28;20032;-48
2021/07/07 06:38:04;;;;;;;5.05;1.83;;;;;;;;;;5025441;28;20025;-46
2021/07/07 06:40:30;;;;;;;4.65;1.92;;;;;;;;;;5026238;28;20032;-46
2021/07/07 06:42:55;;;;;;;6.55;1.95;;;;;;;;;;5026332;28;20028;-45
2021/07/07 06:45:21;;;;;;;3.90;1.80;;;;;;;;;;5026050;28;20025;-44
2021/07/07 06:47:47;;;;;;;3.33;1.50;;;;;;;;;;5025750;28;20424;-44
2021/07/07 06:50:14;;;;;;;5.25;1.48;;;;;;;;;;5025967;28;20033;-46
2021/07/07 06:52:40;;;;;;;3.65;1.25;;;;;;;;;;5023837;28;20096;-46
2021/07/07 06:55:07;;;;;;;5.97;1.95;;;;;;;;;;5018241;28;20381;-46
2021/07/07 06:57:36;;;;;;;3.78;1.40;;;;;;;;;;5022256;28;20710;-51
2021/07/07 07:00:07;;;;;;;3.72;1.38;;;;;;;;;;5024528;28;20026;-47
2021/07/07 07:02:33;;;;;;;;;;;;;;;;;;5024020;28;20029;-46
2021/07/07 07:04:59;;;;;;;3.65;1.25;;;;;;;;;;5024562;28;19913;-47
2021/07/07 07:07:26;;;;;;;3.42;1.77;;;;;;;;;;5021571;28;20389;-50
2021/07/07 07:09:51;;;;;;;4.80;1.45;;;;;;;;;;5019327;28;20025;-47
2021/07/07 07:12:17;;;;;;;2.58;1.42;;;;;;;;;;5024065;28;20399;-50
2021/07/07 07:14:42;;;;;;;2.47;1.33;;;;;;;;;;5015343;28;20081;-51
2021/07/07 07:17:07;;;;;;;4.47;1.95;;;;;;;;;;5018051;28;20064;-50
2021/07/07 07:19:33;;;;;;;4.78;2.30;;;;;;;;;;5023669;28;20037;-52
2021/07/07 07:21:58;;;;;;;4.60;2.17;;;;;;;;;;5022527;28;20029;-50
2021/07/07 07:24:23;;;;;;;3.55;2.08;;;;;;;;;;5010458;28;20034;-46
2021/07/07 07:26:49;;;;;;;4.95;2.47;;;;;;;;;;5016447;28;20029;-49
2021/07/07 07:29:14;;;;;;;5.65;2.70;;;;;;;;;;5024237;28;20029;-52
2021/07/07 07:31:40;;;;;;;6.20;2.58;;;;;;;;;;5023368;28;20025;-45
2021/07/07 07:34:05;;;;;;;5.20;3.03;;;;;;;;;;5024258;28;20112;-47
2021/07/07 07:36:30;;;;;;;5.47;2.90;;;;;;;;;;5021952;28;20492;-50
2021/07/07 07:39:00;;;;;;;4.22;2.95;;;;;;;;;;5019264;28;20131;-47
2021/07/07 07:41:30;;;;;;;5.28;2.60;;;;;;;;;;5006404;28;20030;-51
2021/07/07 07:43:56;;;;;;;3.90;2.40;;;;;;;;;;5003792;28;20083;-49
2021/07/07 07:46:28;;;;;;;6.55;2.75;;;;;;;;;;5011651;28;20427;-48
2021/07/07 07:48:54;;;;;;;4.03;2.30;;;;;;;;;;5029248;28;20028;-45
2021/07/07 07:51:20;;;;;;;4.43;2.67;;;;;;;;;;5028401;28;20021;-49
2021/07/07 07:53:46;;;;;;;4.38;2.30;;;;;;;;;;5010085;28;20032;-50
2021/07/07 07:56:12;;;;;;;3.28;1.67;;;;;;;;;;5008608;28;20540;-46
2021/07/07 07:58:37;;;;;;;3.10;1.80;;;;;;;;;;5009438;28;20026;-46
2021/07/07 08:01:02;;;;;;;4.80;2.30;;;;;;;;;;5009796;28;20030;-44
2021/07/07 08:03:28;;;;;;;4.65;1.70;;;;;;;;;;5009503;28;20029;-50
2021/07/07 08:05:53;;;;;;;4.55;1.77;;;;;;;;;;5009808;28;20068;-47
2021/07/07 08:08:18;;;;;;;6.95;1.80;;;;;;;;;;5017606;28;20524;-52
2021/07/07 08:10:43;;;;;;;6.05;2.72;;;;;;;;;;5010643;28;20056;-49
2021/07/07 08:13:09;;;;;;;4.65;1.77;;;;;;;;;;5009129;28;20075;-48
2021/07/07 08:15:35;;;;;;;3.20;1.40;;;;;;;;;;5024399;28;20033;-49
2021/07/07 08:18:00;;;;;;;5.93;1.45;;;;;;;;;;5028406;28;20022;-46
2021/07/07 08:20:26;;;;;;;3.45;1.35;;;;;;;;;;5028016;28;20040;-48
2021/07/07 08:22:52;;;;;;;3.22;1.20;;;;;;;;;;5028562;28;20036;-46
2021/07/07 08:25:18;;;;;;;3.33;1.23;;;;;;;;;;5029260;28;20035;-45
2021/07/07 08:27:44;;;;;;;3.15;1.25;;;;;;;;;;5026772;28;20031;-47
2021/07/07 08:30:11;;;;;;;5.05;1.17;;;;;;;;;;5025518;28;20025;-45
2021/07/07 08:32:37;;;;;;;19.90;2.90;;;;;;;;;;5026518;28;20179;-48
2021/07/07 08:35:03;;;;;;;5.82;1.27;;;;;;;;;;5028965;28;20565;-46
2021/07/07 08:37:28;;;;;;;2.90;1.02;;;;;;;;;;5027792;28;20534;-44
2021/07/07 08:39:54;;;;;;;6.90;1.30;;;;;;;;;;5016461;28;20013;-48
2021/07/07 08:42:19;;;;;;;2.67;1.00;;;;;;;;;;5009095;28;20021;-44
2021/07/07 08:44:45;;;;;;;4.07;1.40;;;;;;;;;;5008132;28;20105;-51
2021/07/07 08:47:10;;;;;;;1.60;1.00;;;;;;;;;;5020554;28;20125;-44
2021/07/07 08:49:36;;;;;;;3.13;1.20;;;;;;;;;;5028381;28;20077;-46
2021/07/07 08:52:02;;;;;;;3.72;0.98;;;;;;;;;;5027317;28;20022;-46
2021/07/07 08:54:30;;;;;;;3.88;1.40;;;;;;;;;;5025650;28;20456;-45
2021/07/07 08:56:56;;;;;;;3.55;1.13;;;;;;;;;;5025284;28;20076;-51
2021/07/07 08:59:22;;;;;;;3.15;1.27;;;;;;;;;;5025819;28;20027;-46
2021/07/07 09:01:59;;;;;;;2.85;1.17;;;;;;;;;;5004511;28;20033;-45
2021/07/07 09:04:30;;;;;;;4.30;1.67;;;;;;;;;;5018780;28;20030;-48
2021/07/07 09:07:04;;;;;;;3.67;1.60;;;;;;;;;;5024958;28;20038;-45
2021/07/07 09:09:47;;;;;;;5.47;2.10;;;;;;;;;;5017177;28;20029;-44
2021/07/07 09:12:28;;;;;;;5.93;2.20;;;;;;;;;;5026182;28;20033;-48
2021/07/07 09:15:03;;;;;;;8.02;1.70;;;;;;;;;;5020256;28;20029;-48
2021/07/07 09:17:40;;;;;;;4.88;1.10;;;;;;;;;;5022010;28;20580;-49
2021/07/07 09:20:26;;;;;;;2.33;0.77;;;;;;;;;;5025336;28;20032;-45
2021/07/07 09:23:17;;;;;;;3.78;1.30;;;;;;;;;;5025880;28;20025;-51
2021/07/07 09:25:47;;;;;;;3.22;0.80;;;;;;;;;;5024935;28;20035;-46
2021/07/07 09:28:18;;;;;;;3.35;0.95;;;;;;;;;;5014930;28;20065;-46
2021/07/07 09:30:44;;;;;;;4.82;0.98;;;;;;;;;;5025481;28;20025;-46
2021/07/07 09:33:11;;;;;;;4.72;1.17;;;;;;;;;;5024972;28;20715;-44
2021/07/07 09:35:36;;;;;;;3.40;0.80;;;;;;;;;;5025869;28;20104;-44
2021/07/07 09:38:05;;;;;;;3.63;1.10;;;;;;;;;;5024860;28;20108;-46
2021/07/07 09:40:31;;;;;;;3.40;1.10;;;;;;;;;;5023093;28;20029;-48
2021/07/07 09:42:57;;;;;;;3.83;0.93;;;;;;;;;;5024948;28;20039;-45
2021/07/07 09:45:22;;;;;;;1.55;0.70;;;;;;;;;;5021626;28;20030;-51
2021/07/07 09:47:49;;;;;;;3.17;0.60;;;;;;;;;;5024595;28;20065;-46
2021/07/07 09:50:17;;;;;;;3.85;1.13;;;;;;;;;;5024651;28;20033;-45
2021/07/07 09:52:43;;;;;;;4.43;1.15;;;;;;;;;;5016433;28;20108;-46
2021/07/07 09:55:10;;;;;;;2.10;0.82;;;;;;;;;;5024453;28;20124;-45
2021/07/07 09:57:46;;;;;;;4.80;1.00;;;;;;;;;;5024155;28;20151;-49
2021/07/07 10:00:20;;;;;;;4.07;1.00;;;;;;;;;;5024924;28;20017;-44
2021/07/07 10:02:49;;;;;;;2.95;0.88;;;;;;;;;;5016257;28;20032;-46
2021/07/07 10:05:16;;;;;;;2.97;0.70;;;;;;;;;;5024975;28;20030;-50
2021/07/07 10:07:43;;;;;;;5.47;1.27;;;;;;;;;;5023304;28;20052;-48
2021/07/07 10:10:11;;;;;;;4.38;0.90;;;;;;;;;;5024215;28;20036;-50
2021/07/07 10:12:37;;;;;;;3.40;0.82;;;;;;;;;;5024448;28;20396;-47
2021/07/07 10:15:03;;;;;;;3.50;0.80;;;;;;;;;;5019178;28;20029;-45
2021/07/07 10:17:28;;;;;;;4.82;1.05;;;;;;;;;;5024058;28;20031;-50
2021/07/07 10:19:56;;;;;;;2.75;0.80;;;;;;;;;;5024606;28;20083;-51
2021/07/07 10:22:21;;;;;;;3.05;0.82;;;;;;;;;;5024812;28;20033;-47
2021/07/07 10:24:47;;;;;;;2.30;0.88;;;;;;;;;;5024134;28;20029;-45
2021/07/07 10:27:13;;;;;;;5.68;1.15;;;;;;;;;;5023261;28;20029;-47
2021/07/07 10:29:40;;;;;;;4.03;1.38;;;;;;;;;;5019478;28;20029;-46
2021/07/07 10:32:05;;;;;;;3.42;0.95;;;;;;;;;;5016464;28;20032;-50
2021/07/07 10:34:32;;;;;;;2.42;0.88;;;;;;;;;;5024596;28;20112;-49
2021/07/07 10:37:00;;;;;;;3.30;0.85;;;;;;;;;;5014286;28;20185;-48
2021/07/07 10:39:26;;;;;;;2.85;0.80;;;;;;;;;;5017585;28;20048;-48
2021/07/07 10:42:02;;;;;;;3.08;1.13;;;;;;;;;;5007388;28;20501;-50
2021/07/07 10:44:28;;;;;;;3.92;0.90;;;;;;;;;;5019893;28;20033;-48
2021/07/07 10:47:15;;;;;;;2.55;0.98;;;;;;;;;;5023841;28;20041;-43
2021/07/07 10:49:51;;;;;;;2.83;1.10;;;;;;;;;;5023281;28;20033;-46
2021/07/07 10:52:40;;;;;;;3.55;1.10;;;;;;;;;;5024385;28;20033;-49
2021/07/07 10:55:08;;;;;;;3.75;0.90;;;;;;;;;;5013457;28;20063;-50
2021/07/07 10:57:37;;;;;;;4.80;1.00;;;;;;;;;;5023649;28;20100;-48
2021/07/07 11:00:08;;;;;;;5.63;1.30;;;;;;;;;;5023457;28;20025;-48
2021/07/07 11:02:34;;;;;;;3.70;1.00;;;;;;;;;;5024171;28;20029;-47
2021/07/07 11:05:02;;;;;;;6.63;1.20;;;;;;;;;;5023682;28;20044;-46
2021/07/07 11:07:30;;;;;;;1.77;0.90;;;;;;;;;;5023421;28;20120;-52
2021/07/07 11:10:17;;;;;;;4.38;1.00;;;;;;;;;;5022079;28;20033;-47
2021/07/07 11:12:42;;;;;;;5.53;0.95;;;;;;;;;;5023711;28;20112;-49
2021/07/07 11:15:19;;;;;;;3.58;0.90;;;;;;;;;;5023561;28;20025;-50
2021/07/07 11:17:46;;;;;;;3.15;0.85;;;;;;;;;;5025175;28;20396;-49
2021/07/07 11:20:15;;;;;;;3.03;0.70;;;;;;;;;;5025967;28;20099;-43
2021/07/07 11:22:43;;;;;;;3.92;0.90;;;;;;;;;;5025724;28;20045;-44
2021/07/07 11:25:12;;;;;;;1.98;0.80;;;;;;;;;;5027682;28;20781;-46
2021/07/07 11:27:38;;;;;;;2.25;0.70;;;;;;;;;;5027406;28;20055;-51
2021/07/07 11:30:07;;;;;;;2.83;0.80;;;;;;;;;;5026479;28;20026;-48
2021/07/07 11:32:37;;;;;;;4.32;0.70;;;;;;;;;;5027205;28;20076;-45
2021/07/07 11:35:04;;;;;;;2.83;0.80;;;;;;;;;;5027295;28;20022;-51
2021/07/07 11:37:32;;;;;;;2.17;0.98;;;;;;;;;;5026970;28;20582;-48
2021/07/07 11:40:02;;;;;;;5.70;1.02;;;;;;;;;;5015430;28;20457;-51
2021/07/07 11:42:27;;;;;;;3.85;0.98;;;;;;;;;;5018267;28;20029;-49
2021/07/07 11:44:53;;;;;;;2.03;0.73;;;;;;;;;;5027999;28;20025;-49
2021/07/07 11:47:31;;;;;;;2.95;0.80;;;;;;;;;;5027115;28;20025;-52
2021/07/07 11:50:09;;;;;;;6.22;1.05;;;;;;;;;;5026815;28;20026;-49
2021/07/07 11:53:00;;;;;;;2.17;0.88;;;;;;;;;;5026500;28;20033;-51
2021/07/07 11:55:47;;;;;;;3.20;0.85;;;;;;;;;;5023706;28;20790;-49
2021/07/07 11:58:31;;;;;;;2.35;0.75;;;;;;;;;;5028939;28;20029;-48
2021/07/07 12:01:00;;;;;;;2.63;1.08;;;;;;;;;;5029028;28;20547;-49
2021/07/07 12:03:26;;;;;;;2.30;0.68;;;;;;;;;;5029049;28;20025;-45
2021/07/07 12:05:56;;;;;;;4.00;1.50;;;;;;;;;;5028805;28;20056;-46
2021/07/07 12:08:24;;;;;;;2.50;1.08;;;;;;;;;;5024889;28;20507;-45
2021/07/07 12:11:03;;;;;;;2.42;0.80;;;;;;;;;;5026070;28;20041;-44
2021/07/07 12:13:29;;;;;;;2.35;0.90;;;;;;;;;;5027206;28;20449;-50
2021/07/07 12:16:20;;;;;;;3.97;1.02;;;;;;;;;;5027101;28;20031;-47
2021/07/07 12:18:47;;;;;;;2.58;0.77;;;;;;;;;;5025893;28;20029;-47
2021/07/07 12:21:14;;;;;;;3.08;1.00;;;;;;;;;;5026900;28;20029;-51
2021/07/07 12:23:44;;;;;;;2.50;0.82;;;;;;;;;;5026715;28;20060;-52
2021/07/07 12:26:10;;;;;;;2.63;1.00;;;;;;;;;;5027090;28;20032;-46
2021/07/07 12:28:35;;;;;;;2.00;0.80;;;;;;;;;;5024536;28;20021;-50
2021/07/07 12:31:01;;;;;;;2.92;0.88;;;;;;;;;;5027026;28;20550;-46
2021/07/07 12:33:30;;;;;;;2.20;0.60;;;;;;;;;;5025584;28;20053;-46
2021/07/07 12:35:56;;;;;;;2.10;0.65;;;;;;;;;;5026267;28;20102;-49
2021/07/07 12:38:22;;;;;;;5.57;0.80;;;;;;;;;;5021804;28;20030;-49
2021/07/07 12:40:58;;;;;;;3.45;0.90;;;;;;;;;;5025493;28;20195;-46
2021/07/07 12:43:29;;;;;;;2.28;0.70;;;;;;;;;;5024136;28;20095;-49
2021/07/07 12:46:04;;;;;;;;;;;;;;;;;;5020902;28;20029;-45
2021/07/07 12:48:29;;;;;;;1.55;0.70;;;;;;;;;;5012587;28;20028;-46
2021/07/07 12:50:55;;;;;;;1.33;0.90;;;;;;;;;;5022399;28;20084;-50
2021/07/07 12:53:34;;;;;;;1.58;0.77;;;;;;;;;;5025788;28;20575;-47
2021/07/07 12:56:07;;;;;;;1.80;0.50;;;;;;;;;;5025992;28;20535;-48
2021/07/07 12:58:32;;;;;;;3.92;1.00;;;;;;;;;;5024954;28;20377;-45
2021/07/07 13:00:58;;;;;;;1.08;0.65;;;;;;;;;;5023082;28;20044;-48
2021/07/07 13:03:32;;;;;;;2.30;0.80;;;;;;;;;;5025869;28;20025;-45
2021/07/07 13:06:00;;;;;;;1.65;0.70;;;;;;;;;;5026117;28;20117;-44
2021/07/07 13:08:42;;;;;;;1.92;0.68;;;;;;;;;;5025750;28;20021;-46
2021/07/07 13:11:19;;;;;;;1.10;0.60;;;;;;;;;;5025232;28;20035;-47
2021/07/07 13:13:44;;;;;;;1.92;0.63;;;;;;;;;;5025763;28;20021;-46
2021/07/07 13:16:11;;;;;;;2.72;0.60;;;;;;;;;;5022044;28;20024;-44
2021/07/07 13:19:05;;;;;;;2.35;0.70;;;;;;;;;;5018119;28;20037;-50
2021/07/07 13:21:50;;;;;;;1.52;0.70;;;;;;;;;;5020372;28;20491;-49
2021/07/07 13:24:22;;;;;;;3.30;0.88;;;;;;;;;;5013046;28;20119;-50
2021/07/07 13:27:02;;;;;;;5.00;1.65;;;;;;;;;;5025382;28;20056;-47
2021/07/07 13:29:33;;;;;;;1.20;0.60;;;;;;;;;;5014183;28;20026;-45
2021/07/07 13:32:07;;;;;;;;;;;;;;;;;;5023852;28;20029;-47
2021/07/07 13:34:36;;;;;;;3.42;0.50;;;;;;;;;;5025032;28;19981;-50
2021/07/07 13:37:36;;;;;;;2.72;0.60;;;;;;;;;;5024353;28;20021;-48
2021/07/07 13:40:11;;;;;;;3.08;0.70;;;;;;;;;;5022204;28;20028;-52
2021/07/07 13:42:39;;;;;;;1.63;0.60;;;;;;;;;;5019077;28;20424;-46
2021/07/07 13:45:06;;;;;;;1.88;0.57;;;;;;;;;;5015866;28;20030;-46
2021/07/07 13:47:32;;;;;;;3.05;1.20;;;;;;;;;;5020423;28;20555;-45
2021/07/07 13:50:00;;;;;;;2.70;0.90;;;;;;;;;;5023303;28;20064;-52
2021/07/07 13:52:26;;;;;;;1.52;0.60;;;;;;;;;;5021868;28;20112;-49
2021/07/07 13:54:51;;;;;;;1.35;0.60;;;;;;;;;;5017658;28;20084;-46
2021/07/07 13:57:17;;;;;;;2.20;0.50;;;;;;;;;;5017474;28;20029;-47
2021/07/07 13:59:43;;;;;;;1.95;0.65;;;;;;;;;;5024545;28;20025;-47
2021/07/07 14:02:09;;;;;;;3.22;0.63;;;;;;;;;;5024236;28;20036;-51
2021/07/07 14:04:35;;;;;;;2.15;0.52;;;;;;;;;;5024470;28;20191;-45
2021/07/07 14:07:00;;;;;;;2.80;0.52;;;;;;;;;;5023955;28;20056;-46
2021/07/07 14:09:26;;;;;;;1.38;0.70;;;;;;;;;;5023233;28;20515;-49
2021/07/07 14:11:52;;;;;;;1.35;0.60;;;;;;;;;;5024971;28;20037;-48
2021/07/07 14:14:18;;;;;;;0.95;0.40;;;;;;;;;;5011312;28;20026;-47
2021/07/07 14:16:44;;;;;;;0.73;0.40;;;;;;;;;;5024124;28;20036;-50
2021/07/07 14:19:10;;;;;;;2.67;0.60;;;;;;;;;;5010722;28;20104;-51
2021/07/07 14:21:35;;;;;;;0.70;0.40;;;;;;;;;;5024229;28;20037;-55
2021/07/07 14:24:01;;;;;;;1.35;0.40;;;;;;;;;;5024219;28;20040;-49
2021/07/07 14:26:27;;;;;;;0.70;0.30;;;;;;;;;;5024129;28;20105;-49
2021/07/07 14:28:53;;;;;;;0.80;0.30;;;;;;;;;;5024205;28;20029;-50
2021/07/07 14:31:19;;;;;;;1.75;0.40;;;;;;;;;;5024041;28;20030;-52
2021/07/07 14:33:44;;;;;;;0.40;0.30;;;;;;;;;;5024641;28;20162;-51
2021/07/07 14:36:11;;;;;;;2.08;0.63;;;;;;;;;;5024947;28;20061;-54
2021/07/07 14:38:38;;;;;;;1.23;0.43;;;;;;;;;;5022596;28;20039;-52
2021/07/07 14:41:04;;;;;;;0.73;0.40;;;;;;;;;;5023798;28;20025;-51
2021/07/07 14:43:29;;;;;;;1.70;0.40;;;;;;;;;;5022085;28;20028;-51
2021/07/07 14:45:55;;;;;;;0.75;0.47;;;;;;;;;;5022748;28;20455;-50